Time;durP1;ratioP1;P1;durP2;ratioP2;P2;SDS_P1;SDS_P2;PMS_P1;PMS_P2;Temp;Humidity;BMP_temperature;BMP_pressure;BME280_temperature;BME280_humidity;BME280_pressure;Samples;Min_cycle;Max_cycle;Signal;HPM_P1;HPM_P2
2022/12/12 00:01:28;;;;;;;32.03;14.63;;;;;;;1.58;100.00;101048.47;2610657;36;20041;-53
2022/12/12 00:03:57;;;;;;;30.65;14.55;;;;;;;1.74;100.00;101052.09;2608454;36;20034;-57
2022/12/12 00:06:26;;;;;;;30.27;14.50;;;;;;;1.75;100.00;101051.19;2609192;36;20034;-50
2022/12/12 00:08:54;;;;;;;28.33;12.98;;;;;;;1.78;100.00;101052.81;2609557;36;20041;-57
2022/12/12 00:11:27;;;;;;;34.58;15.30;;;;;;;1.61;100.00;101055.44;2609965;36;20521;-56
2022/12/12 00:13:58;;;;;;;30.67;15.00;;;;;;;1.72;100.00;101059.28;2611377;36;20035;-57
2022/12/12 00:16:27;;;;;;;27.33;12.77;;;;;;;1.85;100.00;101061.34;2613913;36;20366;-58
2022/12/12 00:18:56;;;;;;;29.02;14.10;;;;;;;1.92;100.00;101060.09;2613510;36;20081;-53
2022/12/12 00:21:26;;;;;;;27.63;13.68;;;;;;;1.96;100.00;101058.13;2613189;36;20034;-53
2022/12/12 00:23:55;;;;;;;28.52;12.77;;;;;;;1.88;100.00;101058.53;2613263;36;20034;-52
2022/12/12 00:26:25;;;;;;;25.27;13.23;;;;;;;1.82;100.00;101058.84;2612987;36;20038;-55
2022/12/12 00:28:54;;;;;;;27.25;12.88;;;;;;;1.72;100.00;101061.06;2613569;36;20030;-53
2022/12/12 00:31:25;;;;;;;28.02;14.18;;;;;;;1.73;100.00;101060.13;2613629;36;20037;-52
2022/12/12 00:33:53;;;;;;;27.98;12.50;;;;;;;1.60;100.00;101065.16;2613827;36;20428;-55
2022/12/12 00:36:24;;;;;;;27.10;12.70;;;;;;;1.56;100.00;101063.59;2613475;36;20033;-52
2022/12/12 00:38:54;;;;;;;27.17;13.50;;;;;;;1.72;100.00;101064.59;2612828;31;20033;-58
2022/12/12 00:41:23;;;;;;;30.85;13.95;;;;;;;1.71;100.00;101064.66;2613665;36;20428;-55
2022/12/12 00:43:54;;;;;;;29.20;14.02;;;;;;;1.74;100.00;101064.53;2610277;36;20134;-51
2022/12/12 00:46:26;;;;;;;28.92;13.60;;;;;;;1.48;100.00;101065.75;2610006;36;20030;-52
2022/12/12 00:48:56;;;;;;;27.23;12.63;;;;;;;1.42;100.00;101063.41;2611518;36;20026;-55
2022/12/12 00:51:27;;;;;;;26.35;12.38;;;;;;;1.53;100.00;101063.75;2611846;36;20030;-53
2022/12/12 00:53:56;;;;;;;34.70;14.93;;;;;;;1.70;100.00;101065.59;2612789;36;20034;-53
2022/12/12 00:56:26;;;;;;;28.00;12.90;;;;;;;1.71;100.00;101064.66;2613111;31;20185;-56
2022/12/12 00:58:55;;;;;;;28.05;13.27;;;;;;;1.57;100.00;101058.22;2613845;36;20048;-52
2022/12/12 01:01:28;;;;;;;30.05;13.90;;;;;;;1.49;100.00;101064.84;2612922;36;20035;-55
2022/12/12 01:03:57;;;;;;;29.80;12.95;;;;;;;1.40;100.00;101059.03;2613556;36;20035;-55
2022/12/12 01:06:26;;;;;;;27.63;13.52;;;;;;;1.45;100.00;101069.41;2612296;31;21629;-50
2022/12/12 01:08:55;;;;;;;28.87;13.73;;;;;;;1.63;100.00;101069.47;2613353;36;20118;-57
2022/12/12 01:11:23;;;;;;;30.95;13.50;;;;;;;1.66;100.00;101074.63;2613241;36;20283;-58
2022/12/12 01:13:54;;;;;;;29.70;14.00;;;;;;;1.60;100.00;101073.13;2614398;36;20034;-57
2022/12/12 01:16:23;;;;;;;30.30;14.73;;;;;;;1.49;100.00;101070.16;2614495;36;20122;-58
2022/12/12 01:18:54;;;;;;;32.42;14.18;;;;;;;1.55;100.00;101083.13;2614942;31;20451;-57
2022/12/12 01:21:23;;;;;;;32.15;14.43;;;;;;;1.51;100.00;101081.53;2613833;36;20053;-57
2022/12/12 01:23:52;;;;;;;30.02;13.45;;;;;;;1.43;100.00;101084.56;2614512;36;20034;-56
2022/12/12 01:26:22;;;;;;;29.48;13.43;;;;;;;1.29;100.00;101082.53;2613738;36;20554;-54
2022/12/12 01:28:51;;;;;;;32.03;14.63;;;;;;;1.37;100.00;101080.38;2614463;36;20435;-56
2022/12/12 01:31:20;;;;;;;34.38;15.57;;;;;;;1.53;100.00;101082.31;2614918;31;20030;-55
2022/12/12 01:33:48;;;;;;;28.80;13.80;;;;;;;1.54;100.00;101086.69;2614208;36;20034;-49
2022/12/12 01:36:21;;;;;;;36.90;15.15;;;;;;;1.42;100.00;101081.97;2613151;36;20041;-55
2022/12/12 01:38:52;;;;;;;33.08;15.07;;;;;;;1.60;100.00;101083.75;2613855;36;20065;-54
2022/12/12 01:41:21;;;;;;;32.22;13.68;;;;;;;1.58;100.00;101082.97;2613948;36;20438;-53
2022/12/12 01:43:50;;;;;;;31.00;13.70;;;;;;;1.57;100.00;101081.22;2613708;36;20037;-57
2022/12/12 01:46:38;;;;;;;31.40;14.37;;;;;;;1.45;100.00;101089.78;2613658;36;20891;-54
2022/12/12 01:49:14;;;;;;;31.38;14.00;;;;;;;1.46;100.00;101097.66;2614088;36;20646;-56
2022/12/12 01:51:47;;;;;;;31.20;14.85;;;;;;;1.57;100.00;101100.66;2612476;36;20034;-51
2022/12/12 01:54:18;;;;;;;30.65;14.77;;;;;;;1.51;100.00;101095.63;2614108;36;20566;-52
2022/12/12 01:56:49;;;;;;;31.08;14.52;;;;;;;1.47;100.00;101098.50;2613118;36;20535;-52
2022/12/12 01:59:26;;;;;;;36.30;15.20;;;;;;;1.46;100.00;101099.44;2615065;31;20026;-55
2022/12/12 02:01:55;;;;;;;29.20;14.60;;;;;;;1.42;100.00;101089.94;2613943;36;20030;-55
2022/12/12 02:04:25;;;;;;;32.80;14.55;;;;;;;1.50;100.00;101095.72;2613886;36;20038;-51
2022/12/12 02:06:56;;;;;;;;;;;;;;;1.49;100.00;101096.66;2613863;36;20034;-52
2022/12/12 02:09:26;;;;;;;30.77;14.23;;;;;;;1.33;100.00;101100.03;2613869;36;19957;-58
2022/12/12 02:11:57;;;;;;;32.80;14.18;;;;;;;1.43;100.00;101104.88;2611406;36;20041;-54
2022/12/12 02:14:28;;;;;;;33.28;15.80;;;;;;;1.47;100.00;101106.47;2614386;31;20031;-51
2022/12/12 02:17:25;;;;;;;31.90;14.88;;;;;;;1.49;100.00;101104.63;2613806;36;20574;-55
2022/12/12 02:20:35;;;;;;;37.55;15.55;;;;;;;1.60;100.00;101104.97;2613466;36;20035;-50
2022/12/12 02:23:30;;;;;;;34.63;16.02;;;;;;;1.45;100.00;101108.34;2613610;31;20114;-55
2022/12/12 02:26:37;;;;;;;31.67;15.27;;;;;;;1.56;100.00;101098.06;2614912;36;20038;-55
2022/12/12 02:29:52;;;;;;;28.35;14.20;;;;;;;1.47;100.00;101098.50;2614575;31;20030;-54
2022/12/12 02:32:27;;;;;;;30.40;15.10;;;;;;;1.53;100.00;101107.06;2614772;31;20054;-51
2022/12/12 02:35:05;;;;;;;33.65;15.00;;;;;;;1.54;100.00;101102.59;2614702;36;20145;-53
2022/12/12 02:37:41;;;;;;;30.23;14.15;;;;;;;1.65;100.00;101108.28;2615283;36;20050;-58
2022/12/12 02:40:19;;;;;;;33.97;15.38;;;;;;;1.73;100.00;101107.91;2613960;36;20037;-54
2022/12/12 02:42:53;;;;;;;34.88;15.18;;;;;;;1.89;100.00;101110.69;2615422;36;20535;-55
2022/12/12 02:45:29;;;;;;;31.40;14.13;;;;;;;1.85;100.00;101112.59;2616046;36;20450;-54
2022/12/12 02:48:05;;;;;;;32.85;14.43;;;;;;;1.61;100.00;101113.81;2615820;36;20431;-51
2022/12/12 02:50:34;;;;;;;30.40;13.65;;;;;;;1.57;100.00;101105.13;2615140;36;20434;-56
2022/12/12 02:53:02;;;;;;;;;;;;;;;1.64;100.00;101105.69;2615493;36;20041;-49
2022/12/12 02:55:31;;;;;;;34.80;15.10;;;;;;;1.51;100.00;101113.38;2612726;36;20446;-54
2022/12/12 02:57:59;;;;;;;33.40;13.43;;;;;;;1.54;100.00;101108.75;2615144;36;20018;-52
2022/12/12 03:00:33;;;;;;;28.30;13.60;;;;;;;1.60;100.00;101106.78;2615120;36;20015;-56
2022/12/12 03:09:12;;;;;;;36.03;15.60;;;;;;;1.38;100.00;101108.63;2614510;36;20030;-54
2022/12/12 03:11:51;;;;;;;28.50;14.48;;;;;;;1.39;100.00;101112.16;2613325;36;20030;-55
2022/12/12 03:14:26;;;;;;;33.90;15.10;;;;;;;1.29;100.00;101117.00;2614888;31;20049;-54
2022/12/12 03:17:03;;;;;;;33.70;14.73;;;;;;;1.31;100.00;101116.94;2615225;36;20080;-51
2022/12/12 03:19:43;;;;;;;34.42;14.38;;;;;;;1.29;100.00;101111.69;2615282;36;20062;-59
2022/12/12 03:22:23;;;;;;;31.73;14.68;;;;;;;1.30;100.00;101115.22;2614888;36;20531;-53
2022/12/12 03:24:58;;;;;;;31.95;16.02;;;;;;;1.38;100.00;101113.06;2614548;36;20030;-51
2022/12/12 03:27:33;;;;;;;33.22;14.85;;;;;;;1.37;100.00;101112.22;2615438;31;20038;-53
2022/12/12 03:30:05;;;;;;;32.25;14.23;;;;;;;1.48;100.00;101113.50;2614681;36;20030;-54
2022/12/12 03:32:37;;;;;;;30.13;13.43;;;;;;;1.39;100.00;101117.44;2615387;36;20031;-53
2022/12/12 03:35:13;;;;;;;32.40;15.95;;;;;;;1.58;100.00;101106.84;2615014;36;20026;-54
2022/12/12 03:37:47;;;;;;;31.13;14.30;;;;;;;1.55;100.00;101118.44;2615090;36;20041;-50
2022/12/12 03:40:20;;;;;;;31.55;15.25;;;;;;;1.51;100.00;101110.72;2615264;31;20030;-53
2022/12/12 03:42:55;;;;;;;37.78;15.60;;;;;;;1.37;100.00;101111.34;2615055;36;20050;-56
2022/12/12 03:45:29;;;;;;;30.52;13.43;;;;;;;1.47;100.00;101106.47;2615001;36;20038;-54
2022/12/12 03:48:01;;;;;;;29.88;14.13;;;;;;;1.45;100.00;101113.66;2615815;36;20458;-55
2022/12/12 03:50:40;;;;;;;32.13;13.70;;;;;;;1.41;100.00;101112.91;2614698;36;20038;-58
2022/12/12 03:53:13;;;;;;;38.00;15.38;;;;;;;1.48;100.00;101113.50;2615578;36;20057;-56
2022/12/12 03:55:48;;;;;;;32.83;15.40;;;;;;;1.39;100.00;101113.00;2614326;36;20034;-54
2022/12/12 03:58:25;;;;;;;30.35;14.75;;;;;;;1.49;100.00;101116.09;2614565;36;20038;-56
2022/12/12 04:00:57;;;;;;;34.95;14.85;;;;;;;1.27;100.00;101120.66;2615147;36;20030;-54
2022/12/12 04:03:31;;;;;;;29.58;13.77;;;;;;;1.34;100.00;101112.34;2615211;36;20539;-54
2022/12/12 04:14:25;;;;;;;32.00;15.73;;;;;;;1.28;100.00;101115.31;2613903;36;20125;-53
2022/12/12 04:16:59;;;;;;;38.75;15.40;;;;;;;1.28;100.00;101115.31;2614881;36;20027;-56
2022/12/12 04:25:18;;;;;;;36.55;13.75;;;;;;;1.38;100.00;101129.84;2614185;36;20034;-56
2022/12/12 04:27:53;;;;;;;37.10;15.75;;;;;;;1.43;100.00;101119.03;2614868;36;20034;-55
2022/12/12 04:30:22;;;;;;;35.47;15.60;;;;;;;1.50;100.00;101125.78;2615265;31;20033;-57
2022/12/12 04:32:54;;;;;;;36.08;15.30;;;;;;;1.48;100.00;101129.44;2614758;36;20559;-57
2022/12/12 04:35:28;;;;;;;39.33;15.38;;;;;;;1.45;100.00;101130.41;2614653;36;20030;-55
2022/12/12 04:38:02;;;;;;;40.45;16.08;;;;;;;1.39;100.00;101126.25;2615132;36;20513;-56
2022/12/12 04:40:33;;;;;;;36.92;15.25;;;;;;;1.38;100.00;101135.16;2614491;31;20031;-57
2022/12/12 04:43:06;;;;;;;35.90;14.70;;;;;;;1.48;100.00;101138.22;2614432;36;20030;-54
2022/12/12 04:45:39;;;;;;;36.35;15.35;;;;;;;1.44;100.00;101133.16;2614398;36;20038;-54
2022/12/12 04:48:11;;;;;;;33.50;14.68;;;;;;;1.53;100.00;101138.00;2616950;31;20038;-52
2022/12/12 04:50:41;;;;;;;34.10;14.77;;;;;;;1.44;100.00;101138.44;2615635;36;20027;-48
2022/12/12 04:53:15;;;;;;;38.35;15.00;;;;;;;1.50;100.00;101133.72;2616547;36;20454;-58
2022/12/12 04:55:48;;;;;;;37.00;15.10;;;;;;;1.50;100.00;101143.47;2615139;36;20034;-55
2022/12/12 04:58:17;;;;;;;30.05;14.18;;;;;;;1.36;100.00;101142.31;2616262;31;20019;-56
2022/12/12 05:00:53;;;;;;;32.63;15.63;;;;;;;1.47;100.00;101139.16;2615720;36;20030;-55
2022/12/12 05:03:26;;;;;;;32.25;14.10;;;;;;;1.37;100.00;101144.03;2616143;31;20045;-50
2022/12/12 05:05:59;;;;;;;33.03;14.93;;;;;;;1.38;100.00;101143.13;2614721;36;20022;-55
2022/12/12 05:08:34;;;;;;;32.00;13.98;;;;;;;1.29;100.00;101135.56;2616120;31;20551;-52
2022/12/12 05:11:06;;;;;;;31.83;13.82;;;;;;;1.35;100.00;101140.56;2614187;36;20038;-50
2022/12/12 05:13:37;;;;;;;32.50;16.38;;;;;;;1.42;100.00;101140.31;2615134;36;20034;-51
2022/12/12 05:16:16;;;;;;;31.75;14.88;;;;;;;1.46;100.00;101147.19;2613655;36;20038;-54
2022/12/12 05:18:44;;;;;;;33.45;16.30;;;;;;;1.39;100.00;101147.47;2615480;36;20031;-50
2022/12/12 05:21:12;;;;;;;34.47;16.02;;;;;;;1.31;100.00;101149.63;2614172;36;20061;-55
2022/12/12 05:23:43;;;;;;;30.60;14.33;;;;;;;1.38;100.00;101145.78;2614930;36;20041;-54
2022/12/12 05:26:20;;;;;;;39.92;16.20;;;;;;;1.50;100.00;101148.78;2614084;36;20681;-57
2022/12/12 05:28:48;;;;;;;34.33;14.80;;;;;;;1.52;100.00;101141.63;2615455;36;20061;-52
2022/12/12 05:31:17;;;;;;;31.58;14.93;;;;;;;1.51;100.00;101139.88;2614438;36;20141;-52
2022/12/12 05:33:45;;;;;;;31.95;14.23;;;;;;;1.57;100.00;101142.25;2615240;36;20041;-53
2022/12/12 05:36:15;;;;;;;35.53;15.10;;;;;;;1.55;100.00;101149.44;2614173;36;20023;-51
2022/12/12 05:38:46;;;;;;;34.60;15.80;;;;;;;1.56;100.00;101145.81;2614970;36;20085;-58
2022/12/12 05:41:15;;;;;;;30.27;13.80;;;;;;;1.51;100.00;101145.19;2614544;36;20053;-54
2022/12/12 05:43:43;;;;;;;34.67;15.63;;;;;;;1.55;100.00;101152.94;2614858;36;20030;-55
2022/12/12 05:46:11;;;;;;;35.40;16.05;;;;;;;1.56;100.00;101153.78;2614782;36;20595;-52
2022/12/12 05:48:40;;;;;;;34.95;15.20;;;;;;;1.60;100.00;101155.38;2615293;36;20034;-56
2022/12/12 05:51:08;;;;;;;31.50;14.43;;;;;;;1.61;100.00;101150.94;2614373;36;20026;-52
2022/12/12 05:53:37;;;;;;;31.60;15.68;;;;;;;1.66;100.00;101147.13;2614845;36;20064;-49
2022/12/12 05:56:10;;;;;;;34.42;15.23;;;;;;;1.52;100.00;101146.94;2614469;36;20122;-54
2022/12/12 05:58:38;;;;;;;31.08;14.25;;;;;;;1.53;100.00;101145.97;2615425;36;20574;-53
2022/12/12 06:01:07;;;;;;;33.03;15.73;;;;;;;1.45;100.00;101150.78;2615146;31;20506;-56
2022/12/12 06:03:36;;;;;;;32.28;14.57;;;;;;;1.40;100.00;101151.84;2615814;31;20037;-56
2022/12/12 06:06:05;;;;;;;33.00;15.52;;;;;;;1.34;100.00;101151.25;2613934;31;20045;-50
2022/12/12 06:08:33;;;;;;;32.15;14.93;;;;;;;1.46;100.00;101152.47;2614775;36;20509;-51
2022/12/12 06:11:02;;;;;;;32.95;14.70;;;;;;;1.39;100.00;101162.53;2613645;36;20796;-52
2022/12/12 06:13:33;;;;;;;32.15;14.43;;;;;;;1.43;100.00;101158.81;2615519;31;20030;-58
2022/12/12 06:16:01;;;;;;;33.75;15.43;;;;;;;1.33;100.00;101163.66;2613803;36;20049;-58
2022/12/12 06:18:29;;;;;;;34.20;15.65;;;;;;;1.31;100.00;101170.84;2614612;31;20054;-54
2022/12/12 06:21:04;;;;;;;36.65;15.68;;;;;;;1.35;100.00;101167.09;2613572;36;20037;-55
2022/12/12 06:23:32;;;;;;;35.22;15.80;;;;;;;1.35;100.00;101168.91;2614407;36;20050;-55
2022/12/12 06:26:01;;;;;;;32.60;15.05;;;;;;;1.32;100.00;101169.03;2614362;36;20023;-52
2022/12/12 06:28:29;;;;;;;33.70;14.10;;;;;;;1.24;100.00;101172.03;2614166;36;20031;-55
2022/12/12 06:31:00;;;;;;;41.15;17.27;;;;;;;1.26;100.00;101177.28;2614172;36;20031;-47
2022/12/12 06:33:30;;;;;;;35.42;15.85;;;;;;;1.30;100.00;101179.72;2615996;36;20458;-52
2022/12/12 06:36:00;;;;;;;39.80;17.23;;;;;;;1.22;100.00;101176.53;2614625;36;20043;-54
2022/12/12 06:38:29;;;;;;;41.83;17.08;;;;;;;1.31;100.00;101164.66;2614793;36;20042;-58
2022/12/12 06:40:58;;;;;;;36.67;17.48;;;;;;;1.18;100.00;101175.81;2614176;36;20037;-49
2022/12/12 06:43:27;;;;;;;36.10;16.03;;;;;;;1.08;100.00;101171.00;2615603;31;20434;-49
2022/12/12 06:46:05;;;;;;;39.35;16.98;;;;;;;1.05;100.00;101180.78;2613516;36;20030;-55
2022/12/12 06:48:35;;;;;;;35.90;16.67;;;;;;;0.94;100.00;101180.38;2614746;36;20030;-54
2022/12/12 06:51:08;;;;;;;37.03;17.00;;;;;;;0.86;100.00;101179.88;2612244;31;20054;-55
2022/12/12 06:53:37;;;;;;;30.08;15.05;;;;;;;0.65;100.00;101187.81;2613939;36;20413;-55
2022/12/12 06:56:08;;;;;;;39.10;17.05;;;;;;;0.67;100.00;101193.91;2613798;36;20038;-55
2022/12/12 06:58:37;;;;;;;36.38;16.13;;;;;;;0.80;100.00;101190.75;2613821;36;20030;-53
2022/12/12 07:01:09;;;;;;;34.20;16.52;;;;;;;0.84;100.00;101194.97;2613605;36;20038;-51
2022/12/12 07:03:37;;;;;;;41.38;18.80;;;;;;;0.74;100.00;101190.97;2615040;36;20037;-54
2022/12/12 07:06:07;;;;;;;38.72;16.85;;;;;;;0.66;100.00;101204.56;2613800;31;20038;-55
2022/12/12 07:08:35;;;;;;;40.50;16.88;;;;;;;0.59;100.00;101193.38;2614765;36;20463;-55
2022/12/12 07:11:06;;;;;;;40.13;17.85;;;;;;;0.63;100.00;101200.28;2610979;36;20030;-54
2022/12/12 07:13:35;;;;;;;35.00;15.77;;;;;;;0.62;100.00;101195.88;2613413;36;20037;-56
2022/12/12 07:16:03;;;;;;;41.20;17.20;;;;;;;0.54;100.00;101186.53;2603955;36;20034;-53
2022/12/12 07:18:34;;;;;;;38.45;17.85;;;;;;;0.49;100.00;101194.69;2611532;36;20030;-50
2022/12/12 07:21:05;;;;;;;41.67;16.80;;;;;;;0.40;100.00;101192.38;2612337;36;20035;-49
2022/12/12 07:23:34;;;;;;;37.15;16.40;;;;;;;0.41;100.00;101200.25;2613317;36;20038;-50
2022/12/12 07:26:05;;;;;;;33.53;15.83;;;;;;;0.27;100.00;101198.19;2613311;36;20031;-50
2022/12/12 07:28:34;;;;;;;44.92;18.20;;;;;;;0.36;100.00;101201.41;2614596;36;20026;-52
2022/12/12 07:31:07;;;;;;;36.83;17.30;;;;;;;0.22;100.00;101202.81;2614168;36;20559;-49
2022/12/12 07:33:38;;;;;;;36.17;16.80;;;;;;;0.11;100.00;101210.31;2615861;31;20041;-50
2022/12/12 07:36:07;;;;;;;34.28;15.48;;;;;;;0.11;100.00;101205.03;2613006;36;20053;-52
2022/12/12 07:38:36;;;;;;;34.67;17.65;;;;;;;0.08;100.00;101213.09;2613138;36;20597;-55
2022/12/12 07:41:06;;;;;;;41.17;17.48;;;;;;;0.07;100.00;101214.00;2614863;36;20027;-50
2022/12/12 07:43:36;;;;;;;31.77;15.90;;;;;;;-0.04;100.00;101220.56;2615672;36;20030;-49
2022/12/12 07:46:08;;;;;;;39.55;17.50;;;;;;;0.01;100.00;101220.38;2614865;36;20041;-52
2022/12/12 07:48:39;;;;;;;37.33;17.20;;;;;;;-0.01;100.00;101224.88;2616348;31;20053;-50
2022/12/12 07:51:08;;;;;;;37.95;16.77;;;;;;;-0.06;100.00;101225.06;2615804;36;20057;-50
2022/12/12 07:53:36;;;;;;;39.80;18.00;;;;;;;0.04;100.00;101230.00;2615885;36;20588;-50
2022/12/12 07:56:07;;;;;;;39.55;18.23;;;;;;;-0.06;100.00;101227.72;2615008;31;20567;-48
2022/12/12 07:58:36;;;;;;;40.05;17.42;;;;;;;0.07;100.00;101227.22;2615797;31;20555;-50
2022/12/12 08:01:11;;;;;;;40.03;18.20;;;;;;;0.13;100.00;101241.09;2613991;36;20598;-49
2022/12/12 08:03:42;;;;;;;40.38;17.55;;;;;;;0.11;100.00;101235.00;2614894;36;20034;-48
2022/12/12 08:06:10;;;;;;;40.45;18.50;;;;;;;0.05;100.00;101240.53;2614889;36;20065;-52
2022/12/12 08:08:39;;;;;;;40.25;18.13;;;;;;;0.14;100.00;101239.31;2615670;36;20027;-49
2022/12/12 08:11:09;;;;;;;43.75;19.02;;;;;;;-0.04;100.00;101249.69;2614784;36;20057;-50
2022/12/12 08:13:39;;;;;;;38.47;16.60;;;;;;;-0.02;100.00;101249.63;2615445;36;20026;-49
2022/12/12 08:16:10;;;;;;;39.10;18.77;;;;;;;0.20;100.00;101249.66;2606937;36;20038;-51
2022/12/12 08:18:38;;;;;;;40.55;19.15;;;;;;;0.02;100.00;101251.22;2608967;36;20026;-52
2022/12/12 08:21:12;;;;;;;40.10;20.25;;;;;;;0.03;100.00;101246.78;2615360;36;20037;-56
2022/12/12 08:23:41;;;;;;;41.42;17.35;;;;;;;-0.04;100.00;101247.03;2615427;36;20039;-50
2022/12/12 08:26:10;;;;;;;;;;;;;;;-0.06;100.00;101248.88;2613314;36;20035;-58
2022/12/12 08:28:40;;;;;;;43.70;19.30;;;;;;;-0.12;100.00;101254.38;2615831;36;19938;-51
2022/12/12 08:31:08;;;;;;;45.40;20.60;;;;;;;-0.13;100.00;101255.31;2615306;36;20435;-50
2022/12/12 08:33:37;;;;;;;46.67;18.97;;;;;;;-0.07;100.00;101260.38;2615252;36;20030;-54
2022/12/12 08:36:17;;;;;;;43.38;18.65;;;;;;;-0.04;100.00;101259.41;2614321;36;20299;-57
2022/12/12 08:38:45;;;;;;;48.80;20.13;;;;;;;-0.25;100.00;101247.84;2615798;36;20027;-57
2022/12/12 08:41:15;;;;;;;42.80;19.77;;;;;;;-0.10;100.00;101264.94;2613002;36;20041;-56
2022/12/12 08:43:45;;;;;;;43.53;19.63;;;;;;;-0.16;100.00;101257.22;2615655;36;20295;-56
2022/12/12 08:46:14;;;;;;;43.17;18.77;;;;;;;-0.08;100.00;101265.72;2616369;31;20038;-54
2022/12/12 08:48:43;;;;;;;41.85;18.52;;;;;;;-0.25;100.00;101255.75;2615281;36;20317;-54
2022/12/12 08:51:11;;;;;;;44.50;19.50;;;;;;;-0.26;100.00;101264.66;2614776;36;20038;-55
2022/12/12 08:53:45;;;;;;;44.85;18.35;;;;;;;-0.42;100.00;101257.25;2615097;36;20023;-53
2022/12/12 08:56:14;;;;;;;45.33;20.48;;;;;;;-0.28;100.00;101253.25;2614595;36;20030;-54
2022/12/12 08:58:42;;;;;;;43.13;19.75;;;;;;;-0.17;100.00;101261.66;2614516;31;20030;-55
2022/12/12 09:01:14;;;;;;;49.10;20.73;;;;;;;-0.23;100.00;101262.72;2615633;36;20019;-56
2022/12/12 09:03:43;;;;;;;45.38;20.13;;;;;;;-0.34;100.00;101270.19;2614814;36;20019;-55
2022/12/12 09:06:13;;;;;;;43.67;20.47;;;;;;;-0.18;100.00;101262.56;2615702;36;20122;-54
2022/12/12 09:08:44;;;;;;;48.20;20.83;;;;;;;-0.20;100.00;101262.63;2615805;31;20034;-54
2022/12/12 09:11:13;;;;;;;45.03;19.95;;;;;;;-0.21;100.00;101265.31;2614815;36;20026;-55
2022/12/12 09:13:42;;;;;;;47.67;21.10;;;;;;;-0.17;100.00;101252.84;2615938;31;20034;-55
2022/12/12 09:16:12;;;;;;;51.60;22.83;;;;;;;-0.23;100.00;101259.25;2615902;36;20061;-54
2022/12/12 09:18:41;;;;;;;46.75;20.77;;;;;;;-0.30;100.00;101260.38;2607728;31;20042;-54
2022/12/12 09:21:10;;;;;;;49.85;21.80;;;;;;;-0.20;100.00;101259.13;2615243;36;20523;-58
2022/12/12 09:23:38;;;;;;;46.78;21.50;;;;;;;-0.31;100.00;101269.22;2608255;31;20023;-55
2022/12/12 09:26:10;;;;;;;45.65;21.30;;;;;;;-0.27;100.00;101260.25;2615138;36;20026;-55
2022/12/12 09:28:39;;;;;;;53.30;23.65;;;;;;;-0.26;100.00;101254.06;2615643;36;20034;-52
2022/12/12 09:31:08;;;;;;;50.53;21.17;;;;;;;-0.42;100.00;101262.53;2615399;36;20029;-53
2022/12/12 09:33:36;;;;;;;;;;;;;;;-0.29;100.00;101264.75;2615500;36;20302;-55
2022/12/12 09:36:10;;;;;;;54.50;23.33;;;;;;;-0.22;100.00;101268.88;2615324;36;19951;-53
2022/12/12 09:38:39;;;;;;;55.10;22.80;;;;;;;-0.18;100.00;101259.91;2617158;31;20430;-57
2022/12/12 09:41:17;;;;;;;59.85;24.23;;;;;;;-0.10;100.00;101263.16;2615222;36;20034;-58
2022/12/12 09:43:53;;;;;;;61.90;24.45;;;;;;;-0.06;100.00;101266.53;2616610;36;20042;-57
2022/12/12 09:46:33;;;;;;;56.60;22.90;;;;;;;-0.05;100.00;101266.47;2617041;31;20058;-50
2022/12/12 09:49:09;;;;;;;51.20;23.67;;;;;;;-0.26;100.00;101269.94;2615754;36;20037;-54
2022/12/12 09:51:38;;;;;;;54.05;23.45;;;;;;;-0.29;100.00;101272.69;2616447;36;20026;-53
2022/12/12 09:54:07;;;;;;;57.47;24.80;;;;;;;-0.22;100.00;101268.88;2616157;36;20038;-56
2022/12/12 09:56:44;;;;;;;57.35;22.20;;;;;;;-0.22;100.00;101274.16;2615953;36;20037;-53
2022/12/12 09:59:18;;;;;;;51.30;22.98;;;;;;;-0.12;100.00;101270.25;2615679;36;20427;-54
2022/12/12 10:02:00;;;;;;;47.72;21.20;;;;;;;-0.07;100.00;101278.06;2616019;36;20042;-53
2022/12/12 10:04:40;;;;;;;55.65;22.92;;;;;;;-0.12;100.00;101277.34;2614664;36;20030;-53
2022/12/12 10:07:16;;;;;;;56.33;22.20;;;;;;;0.03;100.00;101273.25;2616360;31;20030;-52
2022/12/12 10:10:01;;;;;;;48.08;21.77;;;;;;;-0.05;100.00;101271.75;2615416;36;20224;-57
2022/12/12 10:12:34;;;;;;;47.08;21.95;;;;;;;-0.08;100.00;101271.03;2615957;31;20065;-53
2022/12/12 10:15:04;;;;;;;53.17;21.45;;;;;;;-0.16;100.00;101273.97;2615189;36;20550;-53
2022/12/12 10:17:35;;;;;;;44.63;19.83;;;;;;;-0.06;100.00;101269.16;2614981;36;20546;-54
2022/12/12 10:20:07;;;;;;;44.35;20.25;;;;;;;0.04;100.00;101264.41;2616031;36;20038;-50
2022/12/12 10:22:42;;;;;;;40.55;19.35;;;;;;;0.09;100.00;101271.25;2609293;36;20033;-51
2022/12/12 10:25:21;;;;;;;44.78;20.98;;;;;;;0.16;100.00;101266.56;2614430;36;20042;-50
2022/12/12 10:27:55;;;;;;;48.50;19.50;;;;;;;0.23;100.00;101270.72;2615938;36;20054;-51
2022/12/12 10:30:24;;;;;;;37.70;17.23;;;;;;;0.23;100.00;101260.13;2615837;31;20019;-51
2022/12/12 10:33:11;;;;;;;43.03;19.43;;;;;;;0.15;100.00;101256.91;2609335;36;20039;-49
2022/12/12 10:35:48;;;;;;;42.75;18.98;;;;;;;0.37;100.00;101256.94;2616153;36;20027;-48
2022/12/12 10:38:29;;;;;;;44.80;19.17;;;;;;;0.36;100.00;101255.22;2616391;31;20535;-49
2022/12/12 10:41:05;;;;;;;42.33;19.45;;;;;;;0.49;100.00;101255.59;2614242;36;20030;-49
2022/12/12 10:43:44;;;;;;;41.25;18.20;;;;;;;0.42;100.00;101247.00;2615908;36;20543;-50
2022/12/12 10:46:22;;;;;;;43.50;19.50;;;;;;;0.50;100.00;101252.88;2615270;36;20030;-53
2022/12/12 10:48:51;;;;;;;44.67;19.10;;;;;;;0.58;100.00;101249.91;2615709;36;20019;-50
2022/12/12 10:51:22;;;;;;;36.47;19.15;;;;;;;0.49;100.00;101245.00;2615979;36;20613;-53
2022/12/12 10:53:51;;;;;;;45.75;17.80;;;;;;;0.52;100.00;101242.22;2615988;36;20034;-54
2022/12/12 10:56:24;;;;;;;38.75;16.48;;;;;;;0.44;100.00;101241.66;2614272;36;20676;-53
2022/12/12 10:59:00;;;;;;;40.78;17.45;;;;;;;0.45;100.00;101238.09;2615887;36;20030;-52
2022/12/12 11:01:33;;;;;;;40.22;17.25;;;;;;;0.58;100.00;101235.81;2615510;36;20038;-51
2022/12/12 11:04:03;;;;;;;37.92;17.23;;;;;;;0.54;100.00;101232.41;2614524;36;20551;-53
2022/12/12 11:06:34;;;;;;;38.72;16.55;;;;;;;0.40;100.00;101233.00;2615337;36;20042;-52
2022/12/12 11:09:10;;;;;;;35.90;15.38;;;;;;;1.15;100.00;101234.28;2614040;36;20157;-49
2022/12/12 11:11:38;;;;;;;39.78;17.50;;;;;;;1.13;100.00;101235.28;2614288;36;20081;-53
2022/12/12 11:14:30;;;;;;;33.33;16.25;;;;;;;1.16;100.00;101225.41;2616379;36;20030;-55
2022/12/12 11:16:59;;;;;;;34.80;15.48;;;;;;;1.11;100.00;101223.88;2615903;36;20103;-49
2022/12/12 11:19:29;;;;;;;34.38;16.60;;;;;;;1.13;100.00;101229.97;2614948;36;20023;-52
2022/12/12 11:22:04;;;;;;;35.33;15.48;;;;;;;0.96;100.00;101226.25;2616384;36;20427;-52
2022/12/12 11:24:34;;;;;;;33.70;16.05;;;;;;;1.04;100.00;101226.78;2614916;36;20038;-50
2022/12/12 11:27:06;;;;;;;32.53;14.55;;;;;;;1.20;100.00;101232.28;2614508;36;20045;-49
2022/12/12 11:29:44;;;;;;;40.17;14.32;;;;;;;1.17;100.00;101231.56;2616114;36;20424;-53
2022/12/12 11:32:16;;;;;;;31.13;14.77;;;;;;;1.36;100.00;101226.31;2609333;36;20450;-52
2022/12/12 11:34:47;;;;;;;29.85;13.95;;;;;;;1.37;100.00;101220.06;2609255;36;20045;-52
2022/12/12 11:37:18;;;;;;;30.40;14.18;;;;;;;1.15;100.00;101217.50;2615711;36;20547;-52
2022/12/12 11:39:50;;;;;;;35.53;14.88;;;;;;;1.29;100.00;101209.81;2614702;36;20030;-51
2022/12/12 11:42:24;;;;;;;30.55;14.35;;;;;;;1.30;100.00;101210.69;2615476;36;20057;-50
2022/12/12 11:45:03;;;;;;;28.35;13.02;;;;;;;1.48;100.00;101219.59;2615091;36;20023;-53
2022/12/12 11:47:37;;;;;;;28.35;12.40;;;;;;;1.35;100.00;101214.84;2615777;36;20435;-52
2022/12/12 11:50:19;;;;;;;33.30;12.98;;;;;;;1.38;100.00;101209.41;2614979;36;20047;-51
2022/12/12 11:52:48;;;;;;;28.98;12.65;;;;;;;1.41;100.00;101208.41;2614792;36;20041;-53